Century Venus — 3FXD2 — position and weather

sailwx.info

Track history (hours):
 
Tides and Currents Weather Stations Pressure Air Temp Water Temp Dewpoint Dewpoint Depression Visibility Wind Speed Wind Dir Waves Ship Positions

Century Venus

Last reported at 2017-Jan-06 19:33 UTC. Time now 2017-Jan-20 01:49 UTC.
Position N 27°34' W 083°03'.
Warning: this ship's position is 13 days out of date.

Length 137 m; draft 7.9 m.

Type: Ship. MMSI: 357069000.

Date/timePositionNaut miles runAvg speedWind from/ knotsBaromVisibWave heightAir tempDewpointWater temp
2017-Jan-06 19:33N 27°34' W 083°03'1211.3
2017-Jan-06 18:30N 27°36' W 082°50'1111.3
2017-Jan-06 17:33N 27°38' W 082°38'1110.9
2017-Jan-06 16:33N 27°47' W 082°31'9 8.8
2017-Jan-06 15:33N 27°54' W 082°26'2 1.5
2017-Jan-06 14:31N 27°56' W 082°26'0 0.0
2017-Jan-06 13:31N 27°56' W 082°26'0 0.0
2017-Jan-06 12:31N 27°56' W 082°26'0 0.0
2017-Jan-06 11:31N 27°56' W 082°26'0 0.0
2017-Jan-06 10:31N 27°56' W 082°26'0 0.0
2017-Jan-06 09:31N 27°56' W 082°26'0 0.0
2017-Jan-06 08:31N 27°56' W 082°26'0 0.0
2017-Jan-06 07:31N 27°56' W 082°26'0 0.0
2017-Jan-06 06:31N 27°56' W 082°26'0 0.0
2017-Jan-06 05:31N 27°56' W 082°26'0 0.0
2017-Jan-06 04:31N 27°56' W 082°26'0 0.0
2017-Jan-06 03:31N 27°56' W 082°26'0 0.0
2017-Jan-06 02:31N 27°56' W 082°26'0 0.0
2017-Jan-06 01:31N 27°56' W 082°26'0 0.0
2017-Jan-06 00:31N 27°56' W 082°26'0 0.3
2017-Jan-05 23:34N 27°55' W 082°26'5 4.8
2017-Jan-05 22:33N 27°51' W 082°26'3 2.5
2017-Jan-05 21:32N 27°51' W 082°24'0 0.0
2017-Jan-05 20:33N 27°51' W 082°24'0 0.0
2017-Jan-05 19:33N 27°51' W 082°24'0 0.0
2017-Jan-05 18:33N 27°51' W 082°24'0 0.0
2017-Jan-05 17:33N 27°51' W 082°24'0 0.0
2017-Jan-05 16:33N 27°51' W 082°24'0 0.0
2017-Jan-05 15:33N 27°51' W 082°24'0 0.0
2017-Jan-05 14:33N 27°51' W 082°24'0 0.0
2017-Jan-05 13:33N 27°51' W 082°24'0 0.0
2017-Jan-05 12:33N 27°51' W 082°24'0 0.0
2017-Jan-05 11:33N 27°51' W 082°24'0 0.0
2017-Jan-05 10:33N 27°51' W 082°24'0 0.0
2017-Jan-05 09:33N 27°51' W 082°24'0 0.0
2017-Jan-05 08:33N 27°51' W 082°24'0 0.0
2017-Jan-05 07:32N 27°51' W 082°24'0 0.0
2017-Jan-05 06:33N 27°51' W 082°24'0 0.0
2017-Jan-05 05:30N 27°51' W 082°24'0 0.0
2017-Jan-05 04:33N 27°51' W 082°24'0 0.0
2017-Jan-05 03:33N 27°51' W 082°24'0 0.0
2017-Jan-05 02:33N 27°51' W 082°24'0 0.0
2017-Jan-05 01:33N 27°51' W 082°24'0 0.0
2017-Jan-05 00:33N 27°51' W 082°24'0 0.0
2017-Jan-04 23:33N 27°51' W 082°24'0 0.0
2017-Jan-04 22:33N 27°51' W 082°24'0 0.0
2017-Jan-04 21:33N 27°51' W 082°24'0 0.0
2017-Jan-04 20:24N 27°51' W 082°24'0 0.0
2017-Jan-04 19:33N 27°51' W 082°24'0 0.0
2017-Jan-04 18:33N 27°51' W 082°24'0 0.1
2017-Jan-04 17:33N 27°51' W 082°24'9 8.6
2017-Jan-04 16:33N 27°46' W 082°31'1111.1
2017-Jan-04 15:34N 27°37' W 082°39'  
Track history (hours):
 
Tides and Currents Weather Stations Pressure Air Temp Water Temp Dewpoint Dewpoint Depression Visibility Wind Speed Wind Dir Waves Ship Positions

Century Venus

Last reported at 2017-Jan-06 19:33 UTC. Time now 2017-Jan-20 01:49 UTC.
Position N 27°34' W 083°03'.
Warning: this ship's position is 13 days out of date.

Length 137 m; draft 7.9 m.

Type: Ship. MMSI: 357069000.

Date/timePositionNaut miles runAvg speedWind from/ knotsBaromVisibWave heightAir tempDewpointWater temp
2017-Jan-06 19:33N 27°34' W 083°03'1211.3
2017-Jan-06 18:30N 27°36' W 082°50'1111.3
2017-Jan-06 17:33N 27°38' W 082°38'1110.9
2017-Jan-06 16:33N 27°47' W 082°31'9 8.8
2017-Jan-06 15:33N 27°54' W 082°26'2 1.5
2017-Jan-06 14:31N 27°56' W 082°26'0 0.0
2017-Jan-06 13:31N 27°56' W 082°26'0 0.0
2017-Jan-06 12:31N 27°56' W 082°26'0 0.0
2017-Jan-06 11:31N 27°56' W 082°26'0 0.0
2017-Jan-06 10:31N 27°56' W 082°26'0 0.0
2017-Jan-06 09:31N 27°56' W 082°26'0 0.0
2017-Jan-06 08:31N 27°56' W 082°26'0 0.0
2017-Jan-06 07:31N 27°56' W 082°26'0 0.0
2017-Jan-06 06:31N 27°56' W 082°26'0 0.0
2017-Jan-06 05:31N 27°56' W 082°26'0 0.0
2017-Jan-06 04:31N 27°56' W 082°26'0 0.0
2017-Jan-06 03:31N 27°56' W 082°26'0 0.0
2017-Jan-06 02:31N 27°56' W 082°26'0 0.0
2017-Jan-06 01:31N 27°56' W 082°26'0 0.0
2017-Jan-06 00:31N 27°56' W 082°26'0 0.3
2017-Jan-05 23:34N 27°55' W 082°26'5 4.8
2017-Jan-05 22:33N 27°51' W 082°26'3 2.5
2017-Jan-05 21:32N 27°51' W 082°24'0 0.0
2017-Jan-05 20:33N 27°51' W 082°24'0 0.0
2017-Jan-05 19:33N 27°51' W 082°24'0 0.0
2017-Jan-05 18:33N 27°51' W 082°24'0 0.0
2017-Jan-05 17:33N 27°51' W 082°24'0 0.0
2017-Jan-05 16:33N 27°51' W 082°24'0 0.0
2017-Jan-05 15:33N 27°51' W 082°24'0 0.0
2017-Jan-05 14:33N 27°51' W 082°24'0 0.0
2017-Jan-05 13:33N 27°51' W 082°24'0 0.0
2017-Jan-05 12:33N 27°51' W 082°24'0 0.0
2017-Jan-05 11:33N 27°51' W 082°24'0 0.0
2017-Jan-05 10:33N 27°51' W 082°24'0 0.0
2017-Jan-05 09:33N 27°51' W 082°24'0 0.0
2017-Jan-05 08:33N 27°51' W 082°24'0 0.0
2017-Jan-05 07:32N 27°51' W 082°24'0 0.0
2017-Jan-05 06:33N 27°51' W 082°24'0 0.0
2017-Jan-05 05:30N 27°51' W 082°24'0 0.0
2017-Jan-05 04:33N 27°51' W 082°24'0 0.0
2017-Jan-05 03:33N 27°51' W 082°24'0 0.0
2017-Jan-05 02:33N 27°51' W 082°24'0 0.0
2017-Jan-05 01:33N 27°51' W 082°24'0 0.0
2017-Jan-05 00:33N 27°51' W 082°24'0 0.0
2017-Jan-04 23:33N 27°51' W 082°24'0 0.0
2017-Jan-04 22:33N 27°51' W 082°24'0 0.0
2017-Jan-04 21:33N 27°51' W 082°24'0 0.0
2017-Jan-04 20:24N 27°51' W 082°24'0 0.0
2017-Jan-04 19:33N 27°51' W 082°24'0 0.0
2017-Jan-04 18:33N 27°51' W 082°24'0 0.1
2017-Jan-04 17:33N 27°51' W 082°24'9 8.6
2017-Jan-04 16:33N 27°46' W 082°31'1111.1
2017-Jan-04 15:34N 27°37' W 082°39'  

Dump ship's entire track history